createdAt,value
2019-04-11T00:00:23.982Z,68
2019-04-11T00:01:32.516Z,68
2019-04-11T00:02:24.726Z,68
2019-04-11T00:03:25.076Z,68
2019-04-11T00:04:24.366Z,68
2019-04-11T00:05:24.139Z,68
2019-04-11T00:06:24.068Z,69
2019-04-11T00:07:24.536Z,69
2019-04-11T00:08:24.050Z,68
2019-04-11T00:09:24.862Z,68
2019-04-11T00:10:24.985Z,68
2019-04-11T00:11:28.151Z,69
2019-04-11T00:12:24.427Z,69
2019-04-11T00:13:27.081Z,69
2019-04-11T00:14:24.279Z,69
2019-04-11T00:15:24.465Z,69
2019-04-11T00:16:24.003Z,68
2019-04-11T00:17:24.079Z,68
2019-04-11T00:18:25.248Z,68
2019-04-11T00:19:24.236Z,69
2019-04-11T00:20:24.240Z,69
2019-04-11T00:21:24.602Z,69
2019-04-11T00:22:24.237Z,69
2019-04-11T00:23:24.411Z,69
2019-04-11T00:24:25.085Z,69
2019-04-11T00:25:25.234Z,69
2019-04-11T00:26:24.429Z,69
2019-04-11T00:27:26.726Z,69
2019-04-11T00:28:24.204Z,69
2019-04-11T00:29:24.596Z,69
2019-04-11T00:30:24.092Z,69
2019-04-11T00:31:25.146Z,69
2019-04-11T00:32:25.337Z,69
2019-04-11T00:33:24.766Z,69
2019-04-11T00:34:24.724Z,69
2019-04-11T00:35:24.259Z,69
2019-04-11T00:36:24.270Z,69
2019-04-11T00:37:25.205Z,69
2019-04-11T00:38:45.676Z,69
2019-04-11T00:39:24.189Z,69
2019-04-11T00:40:24.884Z,69
2019-04-11T00:41:24.440Z,70
2019-04-11T00:42:24.491Z,70
2019-04-11T00:43:30.494Z,70
2019-04-11T00:44:25.106Z,71
2019-04-11T00:45:24.454Z,71
2019-04-11T00:46:24.568Z,71
2019-04-11T00:47:24.815Z,71
2019-04-11T00:48:24.370Z,71
2019-04-11T00:49:24.260Z,71
2019-04-11T00:50:27.349Z,71
2019-04-11T00:51:25.592Z,71
2019-04-11T00:52:25.363Z,71
2019-04-11T00:53:24.338Z,71
2019-04-11T00:54:24.771Z,71
2019-04-11T00:55:24.132Z,71
2019-04-11T00:56:24.477Z,71
2019-04-11T00:57:25.161Z,72
2019-04-11T00:58:25.556Z,72
2019-04-11T00:59:24.634Z,72
2019-04-11T01:00:24.290Z,72
2019-04-11T01:01:24.162Z,72
2019-04-11T01:02:25.169Z,72
2019-04-11T01:03:24.534Z,72
2019-04-11T01:04:25.614Z,73
2019-04-11T01:05:24.098Z,73
2019-04-11T01:06:25.836Z,73
2019-04-11T01:07:24.944Z,73
2019-04-11T01:08:24.831Z,73
2019-04-11T01:09:24.437Z,73
2019-04-11T01:10:24.527Z,73
2019-04-11T01:11:24.783Z,73
2019-04-11T01:12:24.804Z,73
2019-04-11T01:13:24.159Z,73
2019-04-11T01:14:24.147Z,73
2019-04-11T01:15:24.252Z,73
2019-04-11T01:16:24.538Z,73
2019-04-11T01:25:34.762Z,74
2019-04-11T01:25:42.275Z,74
2019-04-11T01:26:43.479Z,75
2019-04-11T01:27:42.587Z,75
2019-04-11T01:28:42.922Z,75
2019-04-11T01:29:42.093Z,75
2019-04-11T01:30:42.084Z,75
2019-04-11T01:31:42.924Z,75
2019-04-11T01:32:42.345Z,75
2019-04-11T01:33:42.203Z,75
2019-04-11T01:35:55.380Z,76
2019-04-11T01:36:55.597Z,76
2019-04-11T01:37:55.737Z,76
2019-04-11T01:38:54.782Z,76
2019-04-11T01:39:54.535Z,76
2019-04-11T01:40:54.732Z,76
2019-04-11T01:41:55.182Z,76
2019-04-11T01:42:55.430Z,76
2019-04-11T01:43:59.220Z,76
2019-04-11T01:44:54.821Z,76
2019-04-11T01:45:55.911Z,76
2019-04-11T01:46:54.637Z,76
2019-04-11T01:47:55.273Z,76
2019-04-11T01:48:55.574Z,76
2019-04-11T01:49:54.617Z,76
2019-04-11T01:50:55.118Z,76
2019-04-11T01:51:54.641Z,76
2019-04-11T01:52:55.015Z,76
2019-04-11T01:53:55.365Z,76
2019-04-11T01:55:05.203Z,76
2019-04-11T01:55:54.782Z,76
2019-04-11T01:56:55.730Z,76
2019-04-11T01:57:54.795Z,76
2019-04-11T01:58:55.176Z,76
2019-04-11T01:59:55.746Z,76
2019-04-11T02:00:54.813Z,76
2019-04-11T02:01:54.880Z,76
2019-04-11T02:02:55.640Z,76
2019-04-11T02:03:55.714Z,76
2019-04-11T02:04:54.611Z,76
2019-04-11T02:05:55.762Z,76
2019-04-11T02:06:56.267Z,76
2019-04-11T02:07:55.374Z,76
2019-04-11T02:08:55.647Z,76
2019-04-11T02:10:04.393Z,76
2019-04-11T02:10:55.003Z,76
2019-04-11T02:11:54.631Z,76
2019-04-11T02:12:56.523Z,76
2019-04-11T02:14:05.951Z,76
2019-04-11T02:14:55.498Z,76
2019-04-11T02:15:56.824Z,76
2019-04-11T02:16:54.677Z,76
2019-04-11T02:17:55.039Z,76
2019-04-11T02:18:56.065Z,76
2019-04-11T02:19:55.052Z,76
2019-04-11T02:20:55.713Z,77
2019-04-11T02:21:54.873Z,77
2019-04-11T02:22:54.925Z,77
2019-04-11T02:23:55.227Z,77
2019-04-11T02:24:56.310Z,77
2019-04-11T02:25:54.857Z,77
2019-04-11T02:26:55.109Z,77
2019-04-11T02:27:56.058Z,77
2019-04-11T02:28:55.273Z,77
2019-04-11T02:29:55.648Z,77
2019-04-11T02:30:55.854Z,78
2019-04-11T02:31:57.225Z,78
2019-04-11T02:32:56.116Z,78
2019-04-11T02:33:57.250Z,78
2019-04-11T02:34:58.534Z,78
2019-04-11T02:35:56.564Z,78
2019-04-11T02:36:56.506Z,78
2019-04-11T02:37:55.064Z,78
2019-04-11T02:48:42.578Z,79
2019-04-11T02:48:52.204Z,79
2019-04-11T02:49:52.048Z,78
2019-04-11T02:50:54.132Z,78
2019-04-11T02:51:53.494Z,77
2019-04-11T02:52:52.784Z,77
2019-04-11T02:53:52.009Z,76
2019-04-11T02:54:52.625Z,76
2019-04-11T02:55:52.059Z,76
2019-04-11T02:56:54.729Z,77
2019-04-11T02:57:51.689Z,77
2019-04-11T02:58:54.415Z,77
2019-04-11T03:00:04.355Z,77
2019-04-11T03:00:55.897Z,77
2019-04-11T03:01:53.202Z,77
2019-04-11T03:02:52.608Z,77
2019-04-11T03:03:51.936Z,77
2019-04-11T03:04:52.829Z,77
2019-04-11T03:05:53.332Z,77
2019-04-11T03:06:52.781Z,77
2019-04-11T03:07:53.988Z,77
2019-04-11T03:08:53.209Z,77
2019-04-11T03:09:53.473Z,77
2019-04-11T03:10:55.211Z,77
2019-04-11T03:11:51.768Z,77
2019-04-11T03:12:52.705Z,77
2019-04-11T03:13:52.698Z,77
2019-04-11T03:15:05.566Z,77
2019-04-11T03:16:00.546Z,77
2019-04-11T03:16:57.554Z,78
2019-04-11T03:17:55.355Z,78
2019-04-11T03:19:05.972Z,78
2019-04-11T03:20:02.734Z,78
2019-04-11T03:20:56.106Z,78
2019-04-11T03:21:54.274Z,78
2019-04-11T03:22:57.082Z,78
2019-04-11T03:23:51.912Z,78
2019-04-11T03:24:53.355Z,78
2019-04-11T03:25:52.473Z,78
2019-04-11T03:26:54.314Z,78
2019-04-11T03:27:53.804Z,78
2019-04-11T03:28:55.661Z,78
2019-04-11T03:29:53.855Z,78
2019-04-11T03:31:15.915Z,78
2019-04-11T03:32:32.103Z,78
2019-04-11T03:34:38.984Z,78
2019-04-11T03:37:21.873Z,78
2019-04-11T03:38:13.757Z,78
2019-04-11T03:39:11.634Z,78
2019-04-11T03:40:06.014Z,78
2019-04-11T03:41:04.324Z,78
2019-04-11T03:42:04.054Z,78
2019-04-11T03:43:04.416Z,78
2019-04-11T03:43:58.240Z,78
2019-04-11T03:45:11.302Z,78
2019-04-11T03:46:11.769Z,78
2019-04-11T03:47:07.431Z,78
2019-04-11T03:48:03.786Z,78
2019-04-11T03:48:59.946Z,78
2019-04-11T03:49:57.800Z,78
2019-04-11T03:50:55.333Z,78
2019-04-11T03:51:54.462Z,78
2019-04-11T03:52:53.918Z,79
2019-04-11T03:53:53.526Z,79
2019-04-11T03:54:53.839Z,79
2019-04-11T03:55:53.733Z,79
2019-04-11T03:56:53.307Z,79
2019-04-11T03:57:53.817Z,79
2019-04-11T03:58:53.394Z,79
2019-04-11T03:59:52.022Z,79
2019-04-11T04:00:53.550Z,79
2019-04-11T04:01:54.005Z,79
2019-04-11T04:02:52.547Z,79
2019-04-11T04:03:53.418Z,79
2019-04-11T04:04:53.323Z,79
2019-04-11T04:05:52.755Z,79
2019-04-11T04:06:52.842Z,79
2019-04-11T04:07:52.485Z,79
2019-04-11T04:08:53.186Z,79
2019-04-11T04:09:53.636Z,79
2019-04-11T04:10:51.924Z,79
2019-04-11T04:11:51.833Z,79
2019-04-11T04:12:53.261Z,79
2019-04-11T04:13:53.377Z,79
2019-04-11T04:14:53.723Z,79
2019-04-11T04:16:00.222Z,79
2019-04-11T04:16:54.226Z,79
2019-04-11T04:17:52.085Z,79
2019-04-11T04:18:52.165Z,79
2019-04-11T04:19:51.889Z,79
2019-04-11T04:20:53.137Z,79
2019-04-11T04:21:53.248Z,79
2019-04-11T04:22:52.597Z,79
2019-04-11T04:23:54.079Z,79
2019-04-11T04:24:53.285Z,79
2019-04-11T04:25:51.950Z,79
2019-04-11T04:26:52.623Z,79
2019-04-11T04:27:51.860Z,80
2019-04-11T04:28:55.388Z,80
2019-04-11T04:29:55.822Z,80
2019-04-11T04:30:53.833Z,80
2019-04-11T04:31:54.683Z,80
2019-04-11T04:32:52.234Z,81
2019-04-11T04:33:53.298Z,81
2019-04-11T04:34:53.121Z,81
2019-04-11T04:35:52.415Z,81
2019-04-11T04:36:53.606Z,81
2019-04-11T04:37:56.973Z,81
2019-04-11T04:38:54.837Z,81
2019-04-11T04:40:12.126Z,81
2019-04-11T04:46:03.578Z,81
2019-04-11T04:46:11.500Z,81
2019-04-11T04:47:13.034Z,81
2019-04-11T04:48:07.699Z,80
2019-04-11T04:49:04.734Z,80
2019-04-11T04:50:06.129Z,80
2019-04-11T04:51:07.453Z,80
2019-04-11T04:52:03.934Z,80
2019-04-11T04:53:05.010Z,80
2019-04-11T04:54:05.888Z,80
2019-04-11T04:55:03.973Z,80
2019-04-11T04:56:02.672Z,80
2019-04-11T04:57:03.042Z,80
2019-04-11T04:58:02.522Z,80
2019-04-11T04:59:04.235Z,80
2019-04-11T05:00:05.012Z,80
2019-04-11T05:01:03.705Z,80
2019-04-11T05:02:03.912Z,80
2019-04-11T05:03:02.643Z,80
2019-04-11T05:04:06.745Z,80
2019-04-11T05:05:03.844Z,80
2019-04-11T05:06:04.487Z,80
2019-04-11T05:07:03.358Z,80
2019-04-11T05:08:03.811Z,80
2019-04-11T05:09:04.324Z,80
2019-04-11T05:10:04.577Z,80
2019-04-11T05:11:04.759Z,80
2019-04-11T05:12:05.460Z,80
2019-04-11T05:13:03.504Z,80
2019-04-11T05:14:04.901Z,80
2019-04-11T05:15:03.623Z,80
2019-04-11T05:16:08.509Z,80
2019-04-11T05:17:02.581Z,80
2019-04-11T05:18:04.107Z,80
2019-04-11T05:19:02.809Z,80
2019-04-11T05:20:02.945Z,80
2019-04-11T05:21:03.242Z,80
2019-04-11T05:22:02.843Z,80
2019-04-11T05:23:04.222Z,80
2019-04-11T05:24:03.967Z,80
2019-04-11T05:25:03.546Z,80
2019-04-11T05:26:03.433Z,80
2019-04-11T05:27:02.442Z,80
2019-04-11T05:28:02.491Z,80
2019-04-11T05:29:06.911Z,80
2019-04-11T05:30:02.873Z,80
2019-04-11T05:31:02.891Z,80
2019-04-11T05:32:03.117Z,80
2019-04-11T05:33:02.451Z,80
2019-04-11T05:34:03.491Z,80
2019-04-11T05:35:02.864Z,80
2019-04-11T05:36:03.955Z,80
2019-04-11T05:37:02.520Z,80
2019-04-11T05:38:02.461Z,80
2019-04-11T05:39:02.628Z,80
2019-04-11T05:40:03.116Z,80
2019-04-11T05:41:04.149Z,80
2019-04-11T05:42:03.184Z,79
2019-04-11T05:43:03.780Z,79
2019-04-11T05:44:06.059Z,79
2019-04-11T05:45:03.276Z,79
2019-04-11T05:46:03.596Z,79
2019-04-11T05:47:03.831Z,79
2019-04-11T05:48:03.192Z,79
2019-04-11T05:49:03.794Z,79
2019-04-11T05:50:03.966Z,79
2019-04-11T05:51:02.682Z,79
2019-04-11T05:52:02.562Z,79
2019-04-11T05:53:03.649Z,79
2019-04-11T05:54:06.272Z,79
2019-04-11T05:55:03.073Z,79
2019-04-11T05:56:19.178Z,79
2019-04-11T05:57:03.169Z,79
2019-04-11T05:58:05.843Z,79
2019-04-11T05:59:02.480Z,79
2019-04-11T06:00:03.417Z,79
2019-04-11T06:01:03.411Z,79
2019-04-11T06:02:05.239Z,78
2019-04-11T06:03:03.849Z,78
2019-04-11T06:04:02.765Z,78
2019-04-11T06:05:02.839Z,78
2019-04-11T06:06:04.699Z,78
2019-04-11T06:07:03.278Z,78
2019-04-11T06:08:02.716Z,78
2019-04-11T06:09:03.968Z,78
2019-04-11T06:10:03.336Z,78
2019-04-11T06:11:04.276Z,78
2019-04-11T06:12:03.321Z,78
2019-04-11T06:13:02.916Z,78
2019-04-11T06:14:05.408Z,78
2019-04-11T06:15:03.846Z,78
2019-04-11T06:16:02.972Z,78
2019-04-11T06:17:02.604Z,78
2019-04-11T06:18:02.929Z,78
2019-04-11T06:19:03.886Z,78
2019-04-11T06:20:03.955Z,77
2019-04-11T06:21:03.960Z,77
2019-04-11T06:22:02.578Z,77
2019-04-11T06:23:03.474Z,77
2019-04-11T06:24:03.520Z,77
2019-04-11T06:25:03.491Z,76
2019-04-11T06:26:02.757Z,76
2019-04-11T06:27:02.519Z,76
2019-04-11T06:28:02.636Z,76
2019-04-11T06:29:14.009Z,76
2019-04-11T06:30:07.477Z,76
2019-04-11T06:31:04.438Z,76
2019-04-11T06:34:12.047Z,76
2019-04-11T06:35:13.583Z,76
2019-04-11T06:36:13.830Z,76
2019-04-11T06:37:13.901Z,75
2019-04-11T06:38:14.333Z,75
2019-04-11T06:39:13.837Z,75
2019-04-11T06:40:13.098Z,76
2019-04-11T06:41:14.467Z,76
2019-04-11T06:42:13.250Z,76
2019-04-11T06:43:13.915Z,76
2019-04-11T06:45:27.252Z,75
2019-04-11T06:46:27.148Z,75
2019-04-11T06:47:27.163Z,75
2019-04-11T06:48:26.750Z,75
2019-04-11T06:49:26.611Z,75
2019-04-11T06:50:27.037Z,75
2019-04-11T06:51:26.469Z,75
2019-04-11T06:52:26.583Z,75
2019-04-11T06:53:26.376Z,75
2019-04-11T06:54:26.521Z,75
2019-04-11T06:55:42.709Z,74
2019-04-11T06:56:27.278Z,74
2019-04-11T06:57:26.694Z,74
2019-04-11T06:58:27.564Z,74
2019-04-11T06:59:26.647Z,74
2019-04-11T07:00:27.307Z,74
2019-04-11T07:01:26.500Z,74
2019-04-11T07:02:26.414Z,74
2019-04-11T07:03:28.918Z,73
2019-04-11T07:04:27.348Z,73
2019-04-11T07:07:36.202Z,72
2019-04-11T07:08:35.501Z,72
2019-04-11T07:09:37.074Z,72
2019-04-11T07:10:36.216Z,70
2019-04-11T07:11:36.253Z,70
2019-04-11T07:12:35.529Z,70
2019-04-11T07:13:37.058Z,70
2019-04-11T07:14:36.048Z,70
2019-04-11T07:15:35.622Z,69
2019-04-11T07:16:36.237Z,69
2019-04-11T07:17:37.034Z,69
2019-04-11T07:18:35.815Z,68
2019-04-11T07:19:35.545Z,68
2019-04-11T07:20:35.927Z,68
2019-04-11T07:21:35.555Z,68
2019-04-11T07:22:36.643Z,68
2019-04-11T07:23:36.435Z,68
2019-04-11T07:24:35.531Z,68
2019-04-11T07:25:35.533Z,68
2019-04-11T07:26:35.535Z,68
2019-04-11T07:27:36.651Z,68
2019-04-11T07:28:35.786Z,68
2019-04-11T07:29:35.769Z,68
2019-04-11T07:30:35.975Z,67
2019-04-11T07:31:35.607Z,67
2019-04-11T07:32:36.441Z,67
2019-04-11T07:33:35.723Z,67
2019-04-11T07:34:37.885Z,67
2019-04-11T07:35:35.859Z,67
2019-04-11T07:36:36.099Z,67
2019-04-11T07:37:36.623Z,67
2019-04-11T07:38:36.498Z,67
2019-04-11T07:39:35.987Z,67
2019-04-11T07:40:35.942Z,67
2019-04-11T07:41:36.026Z,67
2019-04-11T07:42:37.325Z,67
2019-04-11T07:43:35.789Z,67
2019-04-11T07:44:35.689Z,67
2019-04-11T07:45:37.606Z,67
2019-04-11T07:46:36.041Z,67
2019-04-11T07:47:37.136Z,67
2019-04-11T07:48:36.083Z,67
2019-04-11T07:49:35.568Z,67
2019-04-11T07:50:35.645Z,67
2019-04-11T07:51:36.461Z,67
2019-04-11T07:52:37.960Z,67
2019-04-11T07:53:37.239Z,67
2019-04-11T07:54:36.988Z,67
2019-04-11T07:57:17.233Z,67
2019-04-11T07:57:26.981Z,67
2019-04-11T07:58:26.977Z,66
2019-04-11T07:59:27.352Z,66
2019-04-11T08:00:36.104Z,66
2019-04-11T08:01:27.170Z,66
2019-04-11T08:02:27.010Z,66
2019-04-11T08:03:27.730Z,66
2019-04-11T08:04:27.746Z,66
2019-04-11T08:05:28.011Z,66
2019-04-11T08:06:27.150Z,66
2019-04-11T08:07:28.186Z,66
2019-04-11T08:08:27.066Z,66
2019-04-11T08:09:26.945Z,66
2019-04-11T08:10:27.382Z,66
2019-04-11T08:11:27.464Z,66
2019-04-11T08:12:27.592Z,66
2019-04-11T08:13:28.326Z,66
2019-04-11T08:14:30.671Z,65
2019-04-11T08:15:26.939Z,65
2019-04-11T08:16:27.001Z,66
2019-04-11T08:17:31.711Z,66
2019-04-11T08:18:26.955Z,66
2019-04-11T08:19:27.410Z,66
2019-04-11T08:20:27.017Z,66
2019-04-11T08:21:28.074Z,66
2019-04-11T08:22:27.304Z,66
2019-04-11T08:23:27.776Z,66
2019-04-11T08:24:28.389Z,66
2019-04-11T08:25:27.313Z,66
2019-04-11T08:26:28.257Z,66
2019-04-11T08:27:27.471Z,66
2019-04-11T08:28:27.055Z,66
2019-04-11T08:29:27.236Z,65
2019-04-11T08:30:26.986Z,65
2019-04-11T08:31:27.223Z,65
2019-04-11T08:32:27.823Z,65
2019-04-11T08:33:27.023Z,65
2019-04-11T08:34:27.093Z,65
2019-04-11T08:35:28.231Z,65
2019-04-11T08:36:27.003Z,65
2019-04-11T08:37:27.580Z,64
2019-04-11T08:38:27.189Z,64
2019-04-11T08:39:27.499Z,64
2019-04-11T08:40:28.088Z,64
2019-04-11T08:41:27.471Z,64
2019-04-11T08:42:56.907Z,64
2019-04-11T08:43:27.416Z,64
2019-04-11T08:44:28.021Z,64
2019-04-11T08:45:27.404Z,64
2019-04-11T08:46:27.236Z,64
2019-04-11T08:47:39.506Z,64
2019-04-11T08:48:27.412Z,64
2019-04-11T08:49:28.961Z,63
2019-04-11T08:50:28.178Z,63
2019-04-11T08:51:27.507Z,63
2019-04-11T08:52:27.870Z,63
2019-04-11T08:54:40.200Z,64
2019-04-11T08:55:47.714Z,64
2019-04-11T08:56:40.279Z,64
2019-04-11T08:57:41.129Z,64
2019-04-11T08:58:40.682Z,64
2019-04-11T08:59:40.394Z,65
2019-04-11T09:00:40.279Z,65
2019-04-11T09:01:40.336Z,65
2019-04-11T09:02:40.872Z,64
2019-04-11T09:03:40.596Z,64
2019-04-11T09:05:33.338Z,64
2019-04-11T09:05:41.203Z,64
2019-04-11T09:06:40.977Z,64
2019-04-11T09:07:41.482Z,64
2019-04-11T09:08:41.216Z,64
2019-04-11T09:09:41.207Z,63
2019-04-11T09:10:42.260Z,63
2019-04-11T09:11:42.217Z,63
2019-04-11T09:12:40.974Z,64
2019-04-11T09:13:41.776Z,64
2019-04-11T09:14:41.280Z,64
2019-04-11T09:15:41.310Z,64
2019-04-11T09:16:41.587Z,64
2019-04-11T09:17:53.046Z,62
2019-04-11T09:18:41.815Z,62
2019-04-11T09:19:41.079Z,62
2019-04-11T09:20:40.787Z,63
2019-04-11T09:21:42.425Z,63
2019-04-11T09:22:41.501Z,62
2019-04-11T09:23:41.867Z,62
2019-04-11T09:24:41.290Z,62
2019-04-11T09:25:40.913Z,62
2019-04-11T09:26:41.097Z,62
2019-04-11T09:27:40.960Z,62
2019-04-11T09:28:41.811Z,62
2019-04-11T09:29:41.997Z,62
2019-04-11T09:30:41.314Z,62
2019-04-11T09:31:41.569Z,62
2019-04-11T09:32:40.791Z,62
2019-04-11T09:33:41.405Z,62
2019-04-11T09:34:41.816Z,62
2019-04-11T09:35:41.574Z,61
2019-04-11T09:36:41.190Z,61
2019-04-11T09:37:42.901Z,62
2019-04-11T09:38:40.963Z,62
2019-04-11T09:39:41.442Z,62
2019-04-11T09:40:41.675Z,61
2019-04-11T09:41:40.929Z,61
2019-04-11T09:42:40.967Z,61
2019-04-11T09:43:58.068Z,61
2019-04-11T09:44:41.279Z,61
2019-04-11T09:45:41.711Z,61
2019-04-11T09:46:40.823Z,61
2019-04-11T09:47:40.926Z,61
2019-04-11T09:48:42.085Z,62
2019-04-11T09:49:41.160Z,62
2019-04-11T09:50:40.803Z,61
2019-04-11T09:51:42.151Z,61
2019-04-11T09:52:41.005Z,61
2019-04-11T09:53:41.007Z,61
2019-04-11T09:54:42.020Z,61
2019-04-11T09:55:41.624Z,61
2019-04-11T09:56:40.883Z,61
2019-04-11T09:57:41.865Z,61
2019-04-11T09:58:42.129Z,60
2019-04-11T09:59:41.195Z,60
2019-04-11T10:00:41.107Z,61
2019-04-11T10:01:41.196Z,61
2019-04-11T10:09:15.515Z,61
2019-04-11T10:09:24.044Z,61
2019-04-11T10:10:24.635Z,60
2019-04-11T10:11:24.102Z,60
2019-04-11T10:12:24.192Z,60
2019-04-11T10:13:23.260Z,60
2019-04-11T10:14:23.713Z,60
2019-04-11T10:15:23.320Z,60
2019-04-11T10:16:24.115Z,59
2019-04-11T10:17:25.160Z,59
2019-04-11T10:19:36.527Z,60
2019-04-11T10:20:36.984Z,60
2019-04-11T10:21:37.460Z,58
2019-04-11T10:22:36.373Z,58
2019-04-11T10:23:36.618Z,58
2019-04-11T10:24:36.734Z,58
2019-04-11T10:25:37.137Z,58
2019-04-11T10:26:36.479Z,59
2019-04-11T10:27:36.513Z,59
2019-04-11T10:28:37.550Z,58
2019-04-11T10:31:50.623Z,58
2019-04-11T10:31:58.991Z,58
2019-04-11T10:32:59.323Z,59
2019-04-11T10:33:59.421Z,59
2019-04-11T10:34:57.703Z,59
2019-04-11T10:35:58.868Z,59
2019-04-11T10:36:59.073Z,59
2019-04-11T10:37:58.198Z,59
2019-04-11T10:38:58.126Z,57
2019-04-11T10:39:57.768Z,57
2019-04-11T10:40:58.849Z,57
2019-04-11T10:41:57.916Z,57
2019-04-11T10:42:58.129Z,57
2019-04-11T10:43:57.700Z,56
2019-04-11T10:44:58.263Z,56
2019-04-11T10:45:58.741Z,56
2019-04-11T10:46:57.858Z,56
2019-04-11T10:47:57.770Z,56
2019-04-11T10:48:57.968Z,56
2019-04-11T10:49:58.745Z,56
2019-04-11T10:50:58.446Z,56
2019-04-11T10:51:58.156Z,56
2019-04-11T10:52:58.495Z,56
2019-04-11T10:53:57.784Z,57
2019-04-11T10:54:58.140Z,57
2019-04-11T10:55:58.155Z,57
2019-04-11T10:56:57.901Z,57
2019-04-11T10:57:57.759Z,57
2019-04-11T10:58:57.824Z,57
2019-04-11T10:59:58.680Z,57
2019-04-11T11:00:57.770Z,57
2019-04-11T11:01:58.121Z,58
2019-04-11T11:02:57.897Z,58
2019-04-11T11:03:58.964Z,58
2019-04-11T11:04:58.991Z,57
2019-04-11T11:05:57.865Z,57
2019-04-11T11:06:57.984Z,57
2019-04-11T11:07:59.217Z,57
2019-04-11T11:08:59.983Z,57
2019-04-11T11:09:58.746Z,56
2019-04-11T11:10:57.991Z,56
2019-04-11T11:11:58.827Z,55
2019-04-11T11:12:57.817Z,55
2019-04-11T11:13:58.366Z,55
2019-04-11T11:14:58.784Z,55
2019-04-11T11:15:58.238Z,55
2019-04-11T11:16:58.866Z,55
2019-04-11T11:18:27.168Z,55
2019-04-11T11:19:29.934Z,55
2019-04-11T11:20:08.562Z,55
2019-04-11T11:21:00.312Z,55
2019-04-11T11:22:00.090Z,55
2019-04-11T11:22:58.196Z,55
2019-04-11T11:23:58.528Z,55
2019-04-11T11:24:58.072Z,55
2019-04-11T11:25:58.512Z,55
2019-04-11T11:26:58.770Z,53
2019-04-11T11:27:57.917Z,53
2019-04-11T11:29:00.495Z,53
2019-04-11T11:29:58.294Z,55
2019-04-11T11:30:58.463Z,55
2019-04-11T11:31:57.921Z,55
2019-04-11T11:32:58.108Z,55
2019-04-11T11:33:58.844Z,55
2019-04-11T11:34:58.980Z,55
2019-04-11T11:36:00.488Z,55
2019-04-11T11:37:26.385Z,55
2019-04-11T11:37:57.922Z,55
2019-04-11T11:38:58.397Z,55
2019-04-11T11:39:59.536Z,56
2019-04-11T11:40:58.399Z,56
2019-04-11T11:41:58.027Z,56
2019-04-11T11:42:58.763Z,54
2019-04-11T11:43:59.191Z,54
2019-04-11T11:44:59.324Z,55
2019-04-11T11:45:58.903Z,55
2019-04-11T11:47:00.025Z,55
2019-04-11T11:49:12.102Z,54
2019-04-11T11:50:15.577Z,55
2019-04-11T11:51:11.236Z,55
2019-04-11T11:52:11.293Z,55
2019-04-11T11:53:13.090Z,58
2019-04-11T11:54:11.528Z,58
2019-04-11T11:55:11.038Z,55
2019-04-11T11:56:10.826Z,55
2019-04-11T11:57:11.078Z,55
2019-04-11T11:58:14.379Z,55
2019-04-11T11:59:11.233Z,55
2019-04-11T12:00:10.861Z,53
2019-04-11T12:01:11.687Z,53
2019-04-11T12:02:16.808Z,53
2019-04-11T12:03:11.181Z,56
2019-04-11T12:04:10.821Z,56
2019-04-11T12:05:15.839Z,56
2019-04-11T12:06:11.056Z,56
2019-04-11T12:07:10.871Z,56
2019-04-11T12:08:13.634Z,56
2019-04-11T12:12:29.563Z,56
2019-04-11T12:12:37.973Z,56
2019-04-11T12:13:38.792Z,53
2019-04-11T12:14:37.240Z,53
2019-04-11T12:15:37.264Z,57
2019-04-11T12:16:37.414Z,57
2019-04-11T12:17:37.817Z,57
2019-04-11T12:18:39.977Z,57
2019-04-11T12:19:44.703Z,57
2019-04-11T12:20:39.477Z,56
2019-04-11T12:21:37.058Z,56
2019-04-11T12:22:37.405Z,56
2019-04-11T12:23:43.660Z,56
2019-04-11T12:24:37.084Z,56
2019-04-11T12:25:37.045Z,54
2019-04-11T12:26:37.902Z,54
2019-04-11T12:27:39.890Z,54
2019-04-11T12:28:38.392Z,55
2019-04-11T12:29:38.485Z,55
2019-04-11T12:30:37.357Z,54
2019-04-11T12:31:41.817Z,54
2019-04-11T12:32:37.029Z,54
2019-04-11T12:33:37.382Z,52
2019-04-11T12:34:37.006Z,52
2019-04-11T12:35:38.000Z,55
2019-04-11T12:36:43.092Z,55
2019-04-11T12:37:37.833Z,55
2019-04-11T12:38:37.478Z,55
2019-04-11T12:39:37.114Z,55
2019-04-11T12:40:37.021Z,55
2019-04-11T12:41:47.022Z,54
2019-04-11T12:42:37.047Z,54
2019-04-11T12:43:37.014Z,55
2019-04-11T12:44:37.253Z,55
2019-04-11T12:45:37.430Z,55
2019-04-11T12:46:37.453Z,56
2019-04-11T12:47:38.460Z,56
2019-04-11T12:48:37.014Z,53
2019-04-11T12:49:37.114Z,53
2019-04-11T12:50:37.411Z,53
2019-04-11T12:51:37.621Z,53
2019-04-11T12:52:37.063Z,53
2019-04-11T12:53:37.487Z,55
2019-04-11T12:54:37.012Z,55
2019-04-11T12:55:37.075Z,55
2019-04-11T12:56:37.502Z,52
2019-04-11T12:57:37.263Z,52
2019-04-11T12:58:37.044Z,54
2019-04-11T12:59:37.228Z,54
2019-04-11T13:00:37.497Z,54
2019-04-11T13:01:53.665Z,52
2019-04-11T13:02:37.085Z,52
2019-04-11T13:03:37.227Z,53
2019-04-11T13:04:37.028Z,53
2019-04-11T13:05:37.072Z,53
2019-04-11T13:06:37.200Z,53
2019-04-11T13:07:37.536Z,53
2019-04-11T13:08:37.131Z,52
2019-04-11T13:09:37.227Z,52
2019-04-11T13:10:37.243Z,52
2019-04-11T13:11:37.508Z,51
2019-04-11T13:13:49.668Z,51
2019-04-11T13:14:49.780Z,51
2019-04-11T13:15:50.021Z,51
2019-04-11T13:16:49.657Z,52
2019-04-11T13:17:49.875Z,52
2019-04-11T13:18:49.907Z,52
2019-04-11T13:19:50.071Z,52
2019-04-11T13:20:49.702Z,52
2019-04-11T13:21:49.699Z,50
2019-04-11T13:22:49.640Z,50
2019-04-11T13:24:05.910Z,50
2019-04-11T13:24:49.699Z,53
2019-04-11T13:25:49.674Z,53
2019-04-11T13:26:49.710Z,51
2019-04-11T13:27:50.123Z,51
2019-04-11T13:28:51.721Z,51
2019-04-11T13:29:49.949Z,56
2019-04-11T13:30:49.739Z,56
2019-04-11T13:31:50.128Z,53
2019-04-11T13:32:49.897Z,53
2019-04-11T13:33:53.853Z,53
2019-04-11T13:34:49.676Z,50
2019-04-11T13:35:49.668Z,50
2019-04-11T13:36:49.723Z,50
2019-04-11T13:37:50.163Z,50
2019-04-11T13:38:51.482Z,50
2019-04-11T13:39:50.121Z,50
2019-04-11T13:40:50.130Z,50
2019-04-11T13:41:49.666Z,49
2019-04-11T13:42:49.677Z,49
2019-04-11T13:43:49.933Z,49
2019-04-11T13:44:51.088Z,48
2019-04-11T13:45:49.694Z,48
2019-04-11T13:46:50.028Z,48
2019-04-11T13:47:49.732Z,48
2019-04-11T13:48:49.922Z,48
2019-04-11T13:49:50.340Z,48
2019-04-11T13:50:50.145Z,48
2019-04-11T13:51:49.747Z,49
2019-04-11T13:52:49.732Z,49
2019-04-11T13:53:50.151Z,49
2019-04-11T13:54:52.000Z,48
2019-04-11T13:55:50.140Z,48
2019-04-11T13:56:49.937Z,48
2019-04-11T13:57:49.692Z,48
2019-04-11T13:58:49.850Z,48
2019-04-11T13:59:49.756Z,48
2019-04-11T14:00:49.889Z,48
2019-04-11T14:01:49.753Z,48
2019-04-11T14:02:51.381Z,47
2019-04-11T14:03:49.885Z,47
2019-04-11T14:04:51.229Z,48
2019-04-11T14:05:50.102Z,48
2019-04-11T14:06:49.974Z,48
2019-04-11T14:07:50.107Z,47
2019-04-11T14:08:50.489Z,47
2019-04-11T14:09:50.013Z,49
2019-04-11T14:10:50.423Z,49
2019-04-11T14:11:50.830Z,49
2019-04-11T14:12:50.337Z,49
2019-04-11T14:13:49.943Z,49
2019-04-11T14:14:51.982Z,49
2019-04-11T14:15:50.219Z,49
2019-04-11T14:16:49.985Z,49
2019-04-11T14:17:49.976Z,47
2019-04-11T14:18:50.003Z,47
2019-04-11T14:19:49.944Z,47
2019-04-11T14:20:49.816Z,47
2019-04-11T14:21:49.816Z,47
2019-04-11T14:27:46.148Z,49
2019-04-11T14:27:55.771Z,49
2019-04-11T14:28:55.308Z,47
2019-04-11T14:29:55.901Z,47
2019-04-11T14:30:56.489Z,47
2019-04-11T14:31:55.128Z,47
2019-04-11T14:32:54.920Z,49
2019-04-11T14:33:55.987Z,49
2019-04-11T14:34:56.293Z,49
2019-04-11T14:35:54.883Z,50
2019-04-11T14:38:08.857Z,51
2019-04-11T14:39:07.833Z,51
2019-04-11T14:40:10.573Z,51
2019-04-11T14:41:09.878Z,51
2019-04-11T14:42:11.720Z,51
2019-04-11T14:43:07.852Z,50
2019-04-11T14:44:07.863Z,50
2019-04-11T14:45:07.879Z,50
2019-04-11T14:46:08.780Z,48
2019-04-11T14:47:07.923Z,48
2019-04-11T14:48:10.179Z,48
2019-04-11T14:49:10.258Z,48
2019-04-11T14:50:08.789Z,48
2019-04-11T14:51:07.791Z,46
2019-04-11T14:52:08.266Z,46
2019-04-11T14:53:07.875Z,46
2019-04-11T14:54:08.190Z,46
2019-04-11T14:55:08.724Z,46
2019-04-11T14:56:07.866Z,47
2019-04-11T14:57:07.922Z,47
2019-04-11T14:59:00.907Z,46
2019-04-11T14:59:08.598Z,46
2019-04-11T15:00:08.982Z,46
2019-04-11T15:01:08.581Z,47
2019-04-11T15:02:09.332Z,47
2019-04-11T15:03:08.553Z,47
2019-04-11T15:04:08.553Z,47
2019-04-11T15:05:08.662Z,47
2019-04-11T15:06:08.945Z,47